sensor_id;sensor_type;location;lat;lon;timestamp;pressure;altitude;pressure_sealevel;temperature;humidity
20019;BME280;10170;42.502;26.526;2023-04-21T00:00:28;99207.44;;;11.20;100.00
20019;BME280;10170;42.502;26.526;2023-04-21T00:02:55;99214.50;;;11.15;100.00
20019;BME280;10170;42.502;26.526;2023-04-21T00:05:22;99210.78;;;11.16;100.00
20019;BME280;10170;42.502;26.526;2023-04-21T00:07:49;99211.06;;;11.08;100.00
20019;BME280;10170;42.502;26.526;2023-04-21T00:10:16;99206.78;;;11.07;100.00
20019;BME280;10170;42.502;26.526;2023-04-21T00:12:43;99203.47;;;11.11;100.00
20019;BME280;10170;42.502;26.526;2023-04-21T00:15:09;99200.16;;;11.16;100.00
20019;BME280;10170;42.502;26.526;2023-04-21T00:17:36;99197.69;;;10.96;100.00
20019;BME280;10170;42.502;26.526;2023-04-21T00:20:03;99183.03;;;10.87;100.00
20019;BME280;10170;42.502;26.526;2023-04-21T00:22:32;99185.50;;;11.07;100.00
20019;BME280;10170;42.502;26.526;2023-04-21T00:24:59;99180.19;;;11.25;100.00
20019;BME280;10170;42.502;26.526;2023-04-21T00:27:25;99188.31;;;11.30;100.00
20019;BME280;10170;42.502;26.526;2023-04-21T00:29:52;99175.84;;;11.30;100.00
20019;BME280;10170;42.502;26.526;2023-04-21T00:32:19;99169.97;;;11.58;100.00
20019;BME280;10170;42.502;26.526;2023-04-21T00:34:45;99169.16;;;11.57;100.00
20019;BME280;10170;42.502;26.526;2023-04-21T00:37:12;99161.59;;;11.54;100.00
20019;BME280;10170;42.502;26.526;2023-04-21T00:39:39;99160.47;;;11.69;100.00
20019;BME280;10170;42.502;26.526;2023-04-21T00:42:06;99155.69;;;11.71;100.00
20019;BME280;10170;42.502;26.526;2023-04-21T00:44:46;99157.34;;;11.72;100.00
20019;BME280;10170;42.502;26.526;2023-04-21T00:47:13;99156.88;;;11.75;100.00
20019;BME280;10170;42.502;26.526;2023-04-21T00:49:39;99161.09;;;11.64;100.00
20019;BME280;10170;42.502;26.526;2023-04-21T00:52:07;99160.59;;;11.55;100.00
20019;BME280;10170;42.502;26.526;2023-04-21T00:54:35;99162.16;;;11.45;100.00
20019;BME280;10170;42.502;26.526;2023-04-21T00:57:01;99153.81;;;11.41;100.00
20019;BME280;10170;42.502;26.526;2023-04-21T00:59:29;99145.63;;;11.54;100.00
20019;BME280;10170;42.502;26.526;2023-04-21T01:01:56;99146.72;;;11.83;100.00
20019;BME280;10170;42.502;26.526;2023-04-21T01:04:23;99152.56;;;11.92;100.00
20019;BME280;10170;42.502;26.526;2023-04-21T01:06:51;99145.59;;;11.91;100.00
20019;BME280;10170;42.502;26.526;2023-04-21T01:09:18;99147.31;;;11.85;100.00
20019;BME280;10170;42.502;26.526;2023-04-21T01:12:04;99161.03;;;11.71;100.00
20019;BME280;10170;42.502;26.526;2023-04-21T01:14:31;99139.06;;;11.75;100.00
20019;BME280;10170;42.502;26.526;2023-04-21T01:16:58;99146.06;;;11.88;100.00
20019;BME280;10170;42.502;26.526;2023-04-21T01:19:27;99149.06;;;11.91;100.00
20019;BME280;10170;42.502;26.526;2023-04-21T01:21:55;99150.06;;;11.79;100.00
20019;BME280;10170;42.502;26.526;2023-04-21T01:24:23;99147.50;;;11.72;100.00
20019;BME280;10170;42.502;26.526;2023-04-21T01:26:50;99142.09;;;11.79;100.00
20019;BME280;10170;42.502;26.526;2023-04-21T01:29:17;99139.16;;;11.69;100.00
20019;BME280;10170;42.502;26.526;2023-04-21T01:31:44;99138.78;;;11.95;100.00
20019;BME280;10170;42.502;26.526;2023-04-21T01:34:13;99131.31;;;11.85;100.00
20019;BME280;10170;42.502;26.526;2023-04-21T01:36:39;99119.72;;;11.80;100.00
20019;BME280;10170;42.502;26.526;2023-04-21T01:39:06;99127.69;;;11.68;100.00
20019;BME280;10170;42.502;26.526;2023-04-21T01:41:33;99132.69;;;11.58;100.00
20019;BME280;10170;42.502;26.526;2023-04-21T01:44:00;99116.28;;;11.61;100.00
20019;BME280;10170;42.502;26.526;2023-04-21T01:46:26;99120.19;;;11.77;100.00
20019;BME280;10170;42.502;26.526;2023-04-21T01:48:53;99108.72;;;11.76;100.00
20019;BME280;10170;42.502;26.526;2023-04-21T01:51:20;99107.59;;;11.84;100.00
20019;BME280;10170;42.502;26.526;2023-04-21T01:53:47;99113.28;;;11.87;100.00
20019;BME280;10170;42.502;26.526;2023-04-21T01:56:14;99104.38;;;11.93;100.00
20019;BME280;10170;42.502;26.526;2023-04-21T01:58:40;99113.22;;;12.05;100.00
20019;BME280;10170;42.502;26.526;2023-04-21T02:01:07;99115.63;;;12.07;100.00
20019;BME280;10170;42.502;26.526;2023-04-21T02:03:34;99117.97;;;11.74;100.00
20019;BME280;10170;42.502;26.526;2023-04-21T02:06:01;99115.31;;;11.55;100.00
20019;BME280;10170;42.502;26.526;2023-04-21T02:08:28;99117.97;;;11.74;100.00
20019;BME280;10170;42.502;26.526;2023-04-21T02:10:55;99113.91;;;11.71;100.00
20019;BME280;10170;42.502;26.526;2023-04-21T02:13:21;99110.38;;;11.89;100.00
20019;BME280;10170;42.502;26.526;2023-04-21T02:15:48;99115.84;;;11.94;100.00
20019;BME280;10170;42.502;26.526;2023-04-21T02:18:22;99120.97;;;11.95;100.00
20019;BME280;10170;42.502;26.526;2023-04-21T02:20:49;99120.72;;;11.97;100.00
20019;BME280;10170;42.502;26.526;2023-04-21T02:23:16;99119.78;;;11.91;100.00
20019;BME280;10170;42.502;26.526;2023-04-21T02:25:42;99127.06;;;11.96;100.00
20019;BME280;10170;42.502;26.526;2023-04-21T02:28:09;99113.84;;;11.89;100.00
20019;BME280;10170;42.502;26.526;2023-04-21T02:30:36;99127.78;;;11.91;100.00
20019;BME280;10170;42.502;26.526;2023-04-21T02:33:02;99114.91;;;11.88;100.00
20019;BME280;10170;42.502;26.526;2023-04-21T02:35:30;99118.22;;;11.72;100.00
20019;BME280;10170;42.502;26.526;2023-04-21T02:37:56;99107.28;;;11.44;100.00
20019;BME280;10170;42.502;26.526;2023-04-21T02:40:23;99110.03;;;11.37;100.00
20019;BME280;10170;42.502;26.526;2023-04-21T02:42:50;99104.38;;;11.45;100.00
20019;BME280;10170;42.502;26.526;2023-04-21T02:45:17;99091.00;;;11.70;100.00
20019;BME280;10170;42.502;26.526;2023-04-21T02:47:43;99082.88;;;11.65;100.00
20019;BME280;10170;42.502;26.526;2023-04-21T02:50:12;99080.13;;;11.53;100.00
20019;BME280;10170;42.502;26.526;2023-04-21T02:52:39;99079.75;;;11.50;100.00
20019;BME280;10170;42.502;26.526;2023-04-21T02:55:06;99085.75;;;11.45;100.00
20019;BME280;10170;42.502;26.526;2023-04-21T02:57:32;99088.41;;;11.45;100.00
20019;BME280;10170;42.502;26.526;2023-04-21T02:59:59;99091.00;;;11.52;100.00
20019;BME280;10170;42.502;26.526;2023-04-21T03:02:26;99087.41;;;11.58;100.00
20019;BME280;10170;42.502;26.526;2023-04-21T03:04:53;99092.91;;;11.63;100.00
20019;BME280;10170;42.502;26.526;2023-04-21T03:07:20;99088.31;;;11.70;100.00
20019;BME280;10170;42.502;26.526;2023-04-21T03:09:46;99099.47;;;11.60;100.00
20019;BME280;10170;42.502;26.526;2023-04-21T03:12:13;99108.81;;;11.70;100.00
20019;BME280;10170;42.502;26.526;2023-04-21T03:14:40;99107.44;;;11.49;100.00
20019;BME280;10170;42.502;26.526;2023-04-21T03:17:07;99115.44;;;11.49;100.00
20019;BME280;10170;42.502;26.526;2023-04-21T03:19:34;99117.25;;;11.67;100.00
20019;BME280;10170;42.502;26.526;2023-04-21T03:22:00;99111.94;;;11.67;100.00
20019;BME280;10170;42.502;26.526;2023-04-21T03:24:27;99124.13;;;11.74;100.00
20019;BME280;10170;42.502;26.526;2023-04-21T03:26:54;99130.50;;;11.37;100.00
20019;BME280;10170;42.502;26.526;2023-04-21T03:29:22;99126.22;;;11.36;100.00
20019;BME280;10170;42.502;26.526;2023-04-21T03:31:49;99121.78;;;11.30;100.00
20019;BME280;10170;42.502;26.526;2023-04-21T03:34:16;99117.16;;;11.07;100.00
20019;BME280;10170;42.502;26.526;2023-04-21T03:36:42;99123.78;;;10.98;100.00
20019;BME280;10170;42.502;26.526;2023-04-21T03:39:09;99114.91;;;11.04;100.00
20019;BME280;10170;42.502;26.526;2023-04-21T03:41:46;99120.41;;;11.27;100.00
20019;BME280;10170;42.502;26.526;2023-04-21T03:44:13;99106.72;;;11.24;100.00
20019;BME280;10170;42.502;26.526;2023-04-21T03:46:40;99120.31;;;11.34;100.00
20019;BME280;10170;42.502;26.526;2023-04-21T03:49:07;99120.53;;;11.50;100.00
20019;BME280;10170;42.502;26.526;2023-04-21T03:51:34;99114.72;;;11.53;100.00
20019;BME280;10170;42.502;26.526;2023-04-21T03:54:00;99124.50;;;11.78;100.00
20019;BME280;10170;42.502;26.526;2023-04-21T03:56:27;99114.91;;;11.88;100.00
20019;BME280;10170;42.502;26.526;2023-04-21T03:58:54;99109.13;;;11.61;100.00
20019;BME280;10170;42.502;26.526;2023-04-21T04:01:21;99108.91;;;11.45;100.00
20019;BME280;10170;42.502;26.526;2023-04-21T04:03:47;99109.34;;;11.42;100.00
20019;BME280;10170;42.502;26.526;2023-04-21T04:06:14;99105.06;;;11.41;100.00
20019;BME280;10170;42.502;26.526;2023-04-21T04:08:41;99098.19;;;11.33;100.00
20019;BME280;10170;42.502;26.526;2023-04-21T04:11:08;99107.88;;;11.28;100.00
20019;BME280;10170;42.502;26.526;2023-04-21T04:13:35;99120.78;;;11.31;100.00
20019;BME280;10170;42.502;26.526;2023-04-21T04:16:01;99117.44;;;11.17;100.00
20019;BME280;10170;42.502;26.526;2023-04-21T04:18:28;99126.09;;;11.13;100.00
20019;BME280;10170;42.502;26.526;2023-04-21T04:20:55;99128.75;;;11.13;100.00
20019;BME280;10170;42.502;26.526;2023-04-21T04:23:22;99130.44;;;11.25;100.00
20019;BME280;10170;42.502;26.526;2023-04-21T04:25:48;99138.25;;;11.20;100.00
20019;BME280;10170;42.502;26.526;2023-04-21T04:28:17;99143.91;;;11.30;100.00
20019;BME280;10170;42.502;26.526;2023-04-21T04:30:43;99145.22;;;11.21;100.00
20019;BME280;10170;42.502;26.526;2023-04-21T04:33:10;99139.69;;;11.41;100.00
20019;BME280;10170;42.502;26.526;2023-04-21T04:35:37;99141.28;;;11.42;100.00
20019;BME280;10170;42.502;26.526;2023-04-21T04:38:04;99146.69;;;11.53;100.00
20019;BME280;10170;42.502;26.526;2023-04-21T04:40:33;99144.53;;;11.62;100.00
20019;BME280;10170;42.502;26.526;2023-04-21T04:42:59;99148.00;;;11.62;100.00
20019;BME280;10170;42.502;26.526;2023-04-21T04:45:28;99148.16;;;11.68;100.00
20019;BME280;10170;42.502;26.526;2023-04-21T04:47:58;99143.22;;;11.71;100.00
20019;BME280;10170;42.502;26.526;2023-04-21T04:50:25;99142.31;;;11.77;100.00
20019;BME280;10170;42.502;26.526;2023-04-21T04:52:52;99138.66;;;11.90;100.00
20019;BME280;10170;42.502;26.526;2023-04-21T04:55:19;99145.66;;;12.02;100.00
20019;BME280;10170;42.502;26.526;2023-04-21T04:57:46;99144.69;;;11.97;100.00
20019;BME280;10170;42.502;26.526;2023-04-21T05:00:12;99146.94;;;12.11;100.00
20019;BME280;10170;42.502;26.526;2023-04-21T05:02:40;99156.69;;;12.17;100.00
20019;BME280;10170;42.502;26.526;2023-04-21T05:05:07;99149.34;;;12.01;100.00
20019;BME280;10170;42.502;26.526;2023-04-21T05:07:34;99152.94;;;11.95;100.00
20019;BME280;10170;42.502;26.526;2023-04-21T05:10:01;99140.66;;;11.76;100.00
20019;BME280;10170;42.502;26.526;2023-04-21T05:12:30;99149.25;;;11.78;100.00
20019;BME280;10170;42.502;26.526;2023-04-21T05:14:59;99148.81;;;11.63;100.00
20019;BME280;10170;42.502;26.526;2023-04-21T05:17:26;99152.09;;;11.47;100.00
20019;BME280;10170;42.502;26.526;2023-04-21T05:19:54;99146.84;;;11.40;100.00
20019;BME280;10170;42.502;26.526;2023-04-21T05:22:20;99141.59;;;11.34;100.00
20019;BME280;10170;42.502;26.526;2023-04-21T05:24:47;99130.56;;;11.48;100.00
20019;BME280;10170;42.502;26.526;2023-04-21T05:27:14;99142.41;;;11.52;100.00
20019;BME280;10170;42.502;26.526;2023-04-21T05:29:40;99123.75;;;11.71;100.00
20019;BME280;10170;42.502;26.526;2023-04-21T05:32:07;99137.72;;;11.96;100.00
20019;BME280;10170;42.502;26.526;2023-04-21T05:34:34;99141.81;;;11.98;100.00
20019;BME280;10170;42.502;26.526;2023-04-21T05:37:01;99133.22;;;11.96;100.00
20019;BME280;10170;42.502;26.526;2023-04-21T05:39:28;99137.41;;;12.04;100.00
20019;BME280;10170;42.502;26.526;2023-04-21T05:41:54;99138.88;;;12.29;100.00
20019;BME280;10170;42.502;26.526;2023-04-21T05:44:21;99135.63;;;12.39;100.00
20019;BME280;10170;42.502;26.526;2023-04-21T05:46:48;99147.03;;;12.57;100.00
20019;BME280;10170;42.502;26.526;2023-04-21T05:49:15;99142.16;;;12.78;100.00
20019;BME280;10170;42.502;26.526;2023-04-21T05:51:41;99145.16;;;12.69;100.00
20019;BME280;10170;42.502;26.526;2023-04-21T05:54:08;99139.84;;;12.81;100.00
20019;BME280;10170;42.502;26.526;2023-04-21T05:56:35;99143.34;;;12.82;100.00
20019;BME280;10170;42.502;26.526;2023-04-21T05:59:02;99144.13;;;13.05;100.00
20019;BME280;10170;42.502;26.526;2023-04-21T06:01:29;99141.13;;;13.13;100.00
20019;BME280;10170;42.502;26.526;2023-04-21T06:03:56;99146.81;;;13.17;100.00
20019;BME280;10170;42.502;26.526;2023-04-21T06:06:25;99155.50;;;13.12;100.00
20019;BME280;10170;42.502;26.526;2023-04-21T06:08:52;99158.97;;;12.90;100.00
20019;BME280;10170;42.502;26.526;2023-04-21T06:11:18;99149.47;;;13.05;100.00
20019;BME280;10170;42.502;26.526;2023-04-21T06:13:45;99146.91;;;13.33;100.00
20019;BME280;10170;42.502;26.526;2023-04-21T06:16:13;99150.00;;;13.42;100.00
20019;BME280;10170;42.502;26.526;2023-04-21T06:18:40;99143.28;;;13.39;100.00
20019;BME280;10170;42.502;26.526;2023-04-21T06:21:06;99143.59;;;13.54;100.00
20019;BME280;10170;42.502;26.526;2023-04-21T06:23:33;99145.03;;;13.73;100.00
20019;BME280;10170;42.502;26.526;2023-04-21T06:26:00;99143.03;;;14.09;100.00
20019;BME280;10170;42.502;26.526;2023-04-21T06:28:30;99144.88;;;14.08;100.00
20019;BME280;10170;42.502;26.526;2023-04-21T06:30:58;99151.50;;;14.06;100.00
20019;BME280;10170;42.502;26.526;2023-04-21T06:33:25;99160.06;;;13.91;100.00
20019;BME280;10170;42.502;26.526;2023-04-21T06:35:53;99153.97;;;14.24;100.00
20019;BME280;10170;42.502;26.526;2023-04-21T06:38:20;99166.34;;;14.58;100.00
20019;BME280;10170;42.502;26.526;2023-04-21T06:40:47;99168.19;;;14.91;100.00
20019;BME280;10170;42.502;26.526;2023-04-21T06:43:14;99181.00;;;14.89;100.00
20019;BME280;10170;42.502;26.526;2023-04-21T06:45:41;99177.69;;;14.98;100.00
20019;BME280;10170;42.502;26.526;2023-04-21T06:48:08;99190.19;;;15.09;100.00
20019;BME280;10170;42.502;26.526;2023-04-21T06:50:35;99195.38;;;14.99;100.00
20019;BME280;10170;42.502;26.526;2023-04-21T06:53:02;99206.47;;;15.08;100.00
20019;BME280;10170;42.502;26.526;2023-04-21T06:55:28;99200.84;;;15.26;100.00
20019;BME280;10170;42.502;26.526;2023-04-21T06:57:55;99212.50;;;14.98;100.00
20019;BME280;10170;42.502;26.526;2023-04-21T07:00:22;99214.28;;;15.09;100.00
20019;BME280;10170;42.502;26.526;2023-04-21T07:02:48;99218.41;;;15.00;100.00
20019;BME280;10170;42.502;26.526;2023-04-21T07:05:15;99210.06;;;14.63;100.00
20019;BME280;10170;42.502;26.526;2023-04-21T07:07:42;99212.91;;;14.57;100.00
20019;BME280;10170;42.502;26.526;2023-04-21T07:10:09;99203.25;;;14.39;100.00
20019;BME280;10170;42.502;26.526;2023-04-21T07:12:36;99206.56;;;14.46;100.00
20019;BME280;10170;42.502;26.526;2023-04-21T07:15:03;99209.16;;;14.74;100.00
20019;BME280;10170;42.502;26.526;2023-04-21T07:17:30;99209.72;;;14.60;100.00
20019;BME280;10170;42.502;26.526;2023-04-21T07:19:56;99205.34;;;14.87;100.00
20019;BME280;10170;42.502;26.526;2023-04-21T07:22:23;99218.53;;;15.27;100.00
20019;BME280;10170;42.502;26.526;2023-04-21T07:24:50;99218.56;;;15.10;100.00
20019;BME280;10170;42.502;26.526;2023-04-21T07:27:16;99202.16;;;15.23;100.00
20019;BME280;10170;42.502;26.526;2023-04-21T07:29:44;99217.53;;;15.49;100.00
20019;BME280;10170;42.502;26.526;2023-04-21T07:32:11;99220.19;;;15.66;100.00
20019;BME280;10170;42.502;26.526;2023-04-21T07:34:38;99210.31;;;15.93;100.00
20019;BME280;10170;42.502;26.526;2023-04-21T07:37:05;99200.38;;;15.94;100.00
20019;BME280;10170;42.502;26.526;2023-04-21T07:39:32;99225.50;;;16.31;100.00
20019;BME280;10170;42.502;26.526;2023-04-21T07:41:58;99234.06;;;16.54;100.00
20019;BME280;10170;42.502;26.526;2023-04-21T07:44:25;99227.31;;;16.25;100.00
20019;BME280;10170;42.502;26.526;2023-04-21T07:46:54;99233.69;;;17.04;100.00
20019;BME280;10170;42.502;26.526;2023-04-21T07:49:21;99242.97;;;17.65;100.00
20019;BME280;10170;42.502;26.526;2023-04-21T07:51:48;99247.31;;;17.71;100.00
20019;BME280;10170;42.502;26.526;2023-04-21T07:54:15;99252.22;;;17.89;100.00
20019;BME280;10170;42.502;26.526;2023-04-21T07:56:42;99249.22;;;18.42;100.00
20019;BME280;10170;42.502;26.526;2023-04-21T07:59:08;99260.81;;;17.86;100.00
20019;BME280;10170;42.502;26.526;2023-04-21T08:01:35;99246.84;;;17.89;100.00
20019;BME280;10170;42.502;26.526;2023-04-21T08:04:02;99253.94;;;18.10;100.00
20019;BME280;10170;42.502;26.526;2023-04-21T08:06:29;99250.50;;;18.40;100.00
20019;BME280;10170;42.502;26.526;2023-04-21T08:08:55;99250.34;;;18.81;100.00
20019;BME280;10170;42.502;26.526;2023-04-21T08:11:22;99259.47;;;18.80;100.00
20019;BME280;10170;42.502;26.526;2023-04-21T08:13:49;99248.44;;;18.77;100.00
20019;BME280;10170;42.502;26.526;2023-04-21T08:16:16;99258.09;;;18.58;100.00
20019;BME280;10170;42.502;26.526;2023-04-21T08:18:43;99269.63;;;18.38;100.00
20019;BME280;10170;42.502;26.526;2023-04-21T08:21:10;99261.53;;;18.38;100.00
20019;BME280;10170;42.502;26.526;2023-04-21T08:23:37;99261.41;;;17.98;100.00
20019;BME280;10170;42.502;26.526;2023-04-21T08:26:03;99262.94;;;17.79;100.00
20019;BME280;10170;42.502;26.526;2023-04-21T08:28:30;99258.84;;;18.28;100.00
20019;BME280;10170;42.502;26.526;2023-04-21T08:30:57;99267.19;;;18.37;100.00
20019;BME280;10170;42.502;26.526;2023-04-21T08:33:24;99270.16;;;18.35;100.00
20019;BME280;10170;42.502;26.526;2023-04-21T08:35:51;99274.00;;;18.64;100.00
20019;BME280;10170;42.502;26.526;2023-04-21T08:38:31;99265.75;;;18.09;100.00
20019;BME280;10170;42.502;26.526;2023-04-21T08:40:58;99270.34;;;18.14;100.00
20019;BME280;10170;42.502;26.526;2023-04-21T08:43:25;99267.44;;;18.30;100.00
20019;BME280;10170;42.502;26.526;2023-04-21T08:45:52;99260.44;;;18.19;100.00
20019;BME280;10170;42.502;26.526;2023-04-21T08:48:21;99258.56;;;18.25;100.00
20019;BME280;10170;42.502;26.526;2023-04-21T08:50:49;99269.09;;;18.41;100.00
20019;BME280;10170;42.502;26.526;2023-04-21T08:53:17;99264.88;;;19.26;100.00
20019;BME280;10170;42.502;26.526;2023-04-21T08:55:44;99274.59;;;19.52;100.00
20019;BME280;10170;42.502;26.526;2023-04-21T08:58:16;99262.16;;;20.30;100.00
20019;BME280;10170;42.502;26.526;2023-04-21T09:00:43;99267.50;;;19.71;100.00
20019;BME280;10170;42.502;26.526;2023-04-21T09:03:10;99268.63;;;19.60;100.00
20019;BME280;10170;42.502;26.526;2023-04-21T09:06:01;99263.69;;;20.46;100.00
20019;BME280;10170;42.502;26.526;2023-04-21T09:08:29;99257.97;;;20.57;100.00
20019;BME280;10170;42.502;26.526;2023-04-21T09:10:58;99244.06;;;19.61;100.00
20019;BME280;10170;42.502;26.526;2023-04-21T09:13:35;99259.91;;;19.83;100.00
20019;BME280;10170;42.502;26.526;2023-04-21T09:16:04;99249.25;;;19.23;100.00
20019;BME280;10170;42.502;26.526;2023-04-21T09:18:36;99246.88;;;20.05;100.00
20019;BME280;10170;42.502;26.526;2023-04-21T09:21:12;99242.97;;;19.67;100.00
20019;BME280;10170;42.502;26.526;2023-04-21T09:26:07;99241.13;;;18.52;100.00
20019;BME280;10170;42.502;26.526;2023-04-21T09:28:34;99244.28;;;18.19;100.00
20019;BME280;10170;42.502;26.526;2023-04-21T09:31:01;99248.22;;;17.97;100.00
20019;BME280;10170;42.502;26.526;2023-04-21T09:33:32;99189.81;;;17.35;100.00
20019;BME280;10170;42.502;26.526;2023-04-21T09:36:25;99225.09;;;17.07;100.00
20019;BME280;10170;42.502;26.526;2023-04-21T09:41:40;99211.81;;;17.27;100.00
20019;BME280;10170;42.502;26.526;2023-04-21T09:44:07;99211.44;;;18.32;100.00
20019;BME280;10170;42.502;26.526;2023-04-21T09:46:35;99224.66;;;18.39;100.00
20019;BME280;10170;42.502;26.526;2023-04-21T09:49:03;99227.13;;;18.45;100.00
20019;BME280;10170;42.502;26.526;2023-04-21T09:51:30;99234.34;;;18.30;100.00
20019;BME280;10170;42.502;26.526;2023-04-21T09:54:18;99230.78;;;18.09;100.00
20019;BME280;10170;42.502;26.526;2023-04-21T09:56:52;99211.06;;;17.83;100.00
20019;BME280;10170;42.502;26.526;2023-04-21T09:59:28;99216.03;;;17.55;100.00
20019;BME280;10170;42.502;26.526;2023-04-21T10:01:56;99206.03;;;16.45;100.00
20019;BME280;10170;42.502;26.526;2023-04-21T10:04:25;99189.72;;;15.34;100.00
20019;BME280;10170;42.502;26.526;2023-04-21T10:06:55;99158.06;;;14.76;100.00
20019;BME280;10170;42.502;26.526;2023-04-21T10:09:22;99169.34;;;14.78;100.00
20019;BME280;10170;42.502;26.526;2023-04-21T10:11:51;99170.09;;;14.57;100.00
20019;BME280;10170;42.502;26.526;2023-04-21T10:14:18;99161.31;;;14.61;100.00
20019;BME280;10170;42.502;26.526;2023-04-21T10:17:13;99158.88;;;14.76;100.00
20019;BME280;10170;42.502;26.526;2023-04-21T10:19:56;99136.38;;;15.11;100.00
20019;BME280;10170;42.502;26.526;2023-04-21T10:22:32;99149.09;;;15.85;100.00
20019;BME280;10170;42.502;26.526;2023-04-21T10:25:00;99144.50;;;16.39;100.00
20019;BME280;10170;42.502;26.526;2023-04-21T10:27:34;99156.69;;;17.20;100.00
20019;BME280;10170;42.502;26.526;2023-04-21T10:30:20;99179.06;;;17.92;100.00
20019;BME280;10170;42.502;26.526;2023-04-21T10:32:48;99182.38;;;18.24;100.00
20019;BME280;10170;42.502;26.526;2023-04-21T10:35:59;99210.97;;;18.45;100.00
20019;BME280;10170;42.502;26.526;2023-04-21T10:38:40;99208.03;;;18.87;100.00
20019;BME280;10170;42.502;26.526;2023-04-21T10:41:25;99223.09;;;17.71;100.00
20019;BME280;10170;42.502;26.526;2023-04-21T10:43:58;99219.97;;;17.42;100.00
20019;BME280;10170;42.502;26.526;2023-04-21T10:46:33;99193.50;;;16.82;100.00
20019;BME280;10170;42.502;26.526;2023-04-21T10:49:07;99209.84;;;16.49;100.00
20019;BME280;10170;42.502;26.526;2023-04-21T10:54:28;99207.50;;;16.05;100.00
20019;BME280;10170;42.502;26.526;2023-04-21T10:56:58;99220.84;;;15.78;100.00
20019;BME280;10170;42.502;26.526;2023-04-21T10:59:28;99213.78;;;15.94;100.00
20019;BME280;10170;42.502;26.526;2023-04-21T11:01:54;99226.78;;;16.02;100.00
20019;BME280;10170;42.502;26.526;2023-04-21T11:04:22;99229.97;;;16.78;100.00
20019;BME280;10170;42.502;26.526;2023-04-21T11:07:11;99241.06;;;17.60;100.00
20019;BME280;10170;42.502;26.526;2023-04-21T11:09:39;99244.66;;;17.39;100.00
20019;BME280;10170;42.502;26.526;2023-04-21T11:12:09;99251.56;;;17.62;100.00
20019;BME280;10170;42.502;26.526;2023-04-21T11:14:37;99258.78;;;17.56;100.00
20019;BME280;10170;42.502;26.526;2023-04-21T11:17:10;99238.63;;;16.85;100.00
20019;BME280;10170;42.502;26.526;2023-04-21T11:19:37;99234.81;;;17.08;100.00
20019;BME280;10170;42.502;26.526;2023-04-21T11:22:04;99237.59;;;17.70;100.00
20019;BME280;10170;42.502;26.526;2023-04-21T11:24:31;99241.03;;;16.82;100.00
20019;BME280;10170;42.502;26.526;2023-04-21T11:26:58;99234.59;;;16.83;100.00
20019;BME280;10170;42.502;26.526;2023-04-21T11:29:28;99238.72;;;16.96;100.00
20019;BME280;10170;42.502;26.526;2023-04-21T11:31:55;99240.91;;;16.67;100.00
20019;BME280;10170;42.502;26.526;2023-04-21T11:34:22;99242.53;;;16.46;100.00
20019;BME280;10170;42.502;26.526;2023-04-21T11:36:56;99233.28;;;17.22;100.00
20019;BME280;10170;42.502;26.526;2023-04-21T11:39:23;99220.72;;;17.79;100.00
20019;BME280;10170;42.502;26.526;2023-04-21T11:41:50;99226.97;;;17.95;100.00
20019;BME280;10170;42.502;26.526;2023-04-21T11:44:40;99236.72;;;18.16;100.00
20019;BME280;10170;42.502;26.526;2023-04-21T11:47:15;99244.09;;;18.51;100.00
20019;BME280;10170;42.502;26.526;2023-04-21T11:49:57;99242.50;;;19.20;100.00
20019;BME280;10170;42.502;26.526;2023-04-21T11:52:29;99246.03;;;18.85;100.00
20019;BME280;10170;42.502;26.526;2023-04-21T11:55:00;99245.66;;;18.37;100.00
20019;BME280;10170;42.502;26.526;2023-04-21T11:57:28;99238.69;;;17.69;100.00
20019;BME280;10170;42.502;26.526;2023-04-21T12:00:04;99245.22;;;17.83;100.00
20019;BME280;10170;42.502;26.526;2023-04-21T12:02:34;99250.03;;;17.76;100.00
20019;BME280;10170;42.502;26.526;2023-04-21T12:05:06;99248.53;;;17.53;100.00
20019;BME280;10170;42.502;26.526;2023-04-21T12:07:38;99246.84;;;17.42;100.00
20019;BME280;10170;42.502;26.526;2023-04-21T12:10:10;99249.94;;;17.61;100.00
20019;BME280;10170;42.502;26.526;2023-04-21T12:12:39;99240.56;;;17.68;100.00
20019;BME280;10170;42.502;26.526;2023-04-21T12:15:07;99242.41;;;17.63;100.00
20019;BME280;10170;42.502;26.526;2023-04-21T12:20:13;99246.38;;;17.14;100.00
20019;BME280;10170;42.502;26.526;2023-04-21T12:22:40;99240.66;;;17.05;100.00
20019;BME280;10170;42.502;26.526;2023-04-21T12:25:07;99244.94;;;16.69;100.00
20019;BME280;10170;42.502;26.526;2023-04-21T12:27:34;99228.75;;;16.33;100.00
20019;BME280;10170;42.502;26.526;2023-04-21T12:30:01;99240.13;;;16.45;100.00
20019;BME280;10170;42.502;26.526;2023-04-21T12:32:29;99243.19;;;16.32;100.00
20019;BME280;10170;42.502;26.526;2023-04-21T12:34:56;99238.34;;;16.29;100.00
20019;BME280;10170;42.502;26.526;2023-04-21T12:37:23;99236.22;;;16.31;100.00
20019;BME280;10170;42.502;26.526;2023-04-21T12:39:50;99242.81;;;16.45;100.00
20019;BME280;10170;42.502;26.526;2023-04-21T12:42:16;99240.22;;;16.55;100.00
20019;BME280;10170;42.502;26.526;2023-04-21T12:44:43;99251.91;;;16.44;100.00
20019;BME280;10170;42.502;26.526;2023-04-21T12:47:10;99246.31;;;16.45;100.00
20019;BME280;10170;42.502;26.526;2023-04-21T12:49:37;99249.63;;;16.52;100.00
20019;BME280;10170;42.502;26.526;2023-04-21T12:52:03;99245.50;;;16.45;100.00
20019;BME280;10170;42.502;26.526;2023-04-21T12:54:32;99235.91;;;16.27;100.00
20019;BME280;10170;42.502;26.526;2023-04-21T12:56:58;99240.50;;;16.05;100.00